Weather at Richmond International Airport

Public forecast

Using degrees Fahrenheit for public forecast. Weather courtesy of forecast.io.

Current aviation weather report (METAR) for Richmond International Airport

Retrieved 2020/10/27 03:36 UTC (0 seconds ago):

KRIC 270336Z 20004KT 1/4SM R34/1600V2000FT FG VV002 14/14 A3014

Aviation forecast (TAF) for Richmond International Airport

Retrieved 2020-10-27 00:00 UTC (3 hours ago):

TAF COR KRIC 262359Z 2700/2724 VRB03KT P6SM BKN010 BKN200 TEMPO 2701/2704 BKN006 OVC010 FM270400 VRB03KT P6SM OVC006 FM270800 00000KT 1 1/2SM BR OVC003 FM271400 01005KT P6SM OVC007 FM271700 02006KT P6SM BKN015 FM272000 05004KT P6SM BKN025